createdAt,value
2018-11-13T00:01:33.519Z,11.33
2018-11-13T00:06:31.555Z,11.50
2018-11-13T00:11:28.980Z,11.64
2018-11-13T00:16:28.370Z,11.66
2018-11-13T00:21:25.739Z,11.67
2018-11-13T00:26:23.157Z,11.40
2018-11-13T00:31:20.526Z,11.49
2018-11-13T00:36:17.926Z,11.77
2018-11-13T00:41:15.325Z,11.63
2018-11-13T00:46:18.993Z,11.08
2018-11-13T00:51:16.427Z,10.98
2018-11-13T00:56:13.967Z,10.89
2018-11-13T01:01:11.407Z,10.88
2018-11-13T01:06:08.775Z,11.44
2018-11-13T01:11:06.142Z,11.20
2018-11-13T01:16:08.528Z,10.88
2018-11-13T01:21:06.054Z,10.80
2018-11-13T01:26:03.527Z,10.82
2018-11-13T01:31:00.891Z,10.94
2018-11-13T01:35:58.242Z,11.01
2018-11-13T01:40:55.630Z,10.95
2018-11-13T01:46:05.024Z,10.98
2018-11-13T01:51:02.443Z,11.02
2018-11-13T01:55:59.794Z,11.14
2018-11-13T02:00:57.160Z,11.05
2018-11-13T02:05:54.522Z,11.02
2018-11-13T02:10:51.878Z,11.29
2018-11-13T02:15:56.032Z,11.48
2018-11-13T02:20:53.546Z,11.38
2018-11-13T02:25:50.892Z,11.21
2018-11-13T02:30:48.245Z,10.94
2018-11-13T02:35:45.622Z,10.78
2018-11-13T02:40:43.075Z,10.64
2018-11-13T02:45:42.350Z,10.54
2018-11-13T02:50:39.806Z,10.41
2018-11-13T02:55:37.165Z,11.01
2018-11-13T03:00:34.539Z,11.09
2018-11-13T03:05:31.931Z,11.13
2018-11-13T03:10:29.300Z,11.24
2018-11-13T03:15:26.674Z,11.08
2018-11-13T03:20:24.076Z,10.71
2018-11-13T03:25:22.098Z,10.66
2018-11-13T03:30:24.547Z,10.72
2018-11-13T03:35:21.925Z,10.65
2018-11-13T03:40:19.382Z,10.56
2018-11-13T03:45:17.251Z,10.46
2018-11-13T03:50:15.839Z,10.42
2018-11-13T03:55:13.839Z,10.32
2018-11-13T04:00:13.150Z,10.23
2018-11-13T04:05:15.675Z,10.97
2018-11-13T04:10:14.129Z,10.64
2018-11-13T04:15:12.995Z,10.23
2018-11-13T04:20:12.260Z,10.24
2018-11-13T04:25:09.730Z,10.08
2018-11-13T04:30:09.560Z,10.13
2018-11-13T04:35:08.130Z,10.18
2018-11-13T04:40:08.938Z,10.11
2018-11-13T04:45:07.999Z,10.23
2018-11-13T04:50:06.812Z,10.17
2018-11-13T04:55:04.606Z,10.35
2018-11-13T05:00:02.096Z,10.04
2018-11-13T05:04:59.454Z,9.92
2018-11-13T05:09:56.831Z,9.87
2018-11-13T05:14:54.258Z,9.88
2018-11-13T05:19:52.164Z,9.86
2018-11-13T05:24:49.560Z,9.89
2018-11-13T05:29:46.916Z,9.96
2018-11-13T05:34:44.401Z,9.87
2018-11-13T05:39:41.795Z,9.85
2018-11-13T05:44:39.155Z,9.96
2018-11-13T05:49:36.517Z,10.10
2018-11-13T05:54:33.899Z,10.10
2018-11-13T05:59:31.335Z,10.26
2018-11-13T06:04:28.746Z,10.19
2018-11-13T06:09:26.136Z,10.31
2018-11-13T06:14:23.534Z,10.27
2018-11-13T06:19:20.955Z,10.39
2018-11-13T06:24:18.831Z,10.37
2018-11-13T06:29:16.216Z,10.62
2018-11-13T06:34:13.626Z,10.45
2018-11-13T06:39:12.863Z,10.47
2018-11-13T06:44:10.303Z,10.34
2018-11-13T06:49:07.768Z,10.39
2018-11-13T06:54:16.447Z,10.38
2018-11-13T06:59:13.841Z,10.59
2018-11-13T07:04:11.253Z,10.51
2018-11-13T07:09:09.220Z,10.70
2018-11-13T07:14:06.626Z,10.72
2018-11-13T07:19:04.563Z,10.54
2018-11-13T07:24:01.991Z,10.46
2018-11-13T07:29:00.019Z,10.52
2018-11-13T07:33:57.426Z,10.53
2018-11-13T07:38:54.823Z,10.63
2018-11-13T07:43:52.296Z,10.66
2018-11-13T07:48:49.776Z,10.61
2018-11-13T07:53:47.256Z,10.52
2018-11-13T07:58:44.714Z,10.59
2018-11-13T08:03:42.182Z,10.91
2018-11-13T08:08:39.561Z,10.97
2018-11-13T08:13:37.133Z,10.93
2018-11-13T08:18:34.436Z,11.10
2018-11-13T08:23:31.923Z,11.30
2018-11-13T08:28:29.364Z,11.36
2018-11-13T08:33:26.803Z,11.34
2018-11-13T08:38:24.247Z,11.41
2018-11-13T08:43:21.685Z,11.49
2018-11-13T08:48:19.169Z,11.52
2018-11-13T08:53:16.591Z,11.73
2018-11-13T08:58:13.979Z,11.75
2018-11-13T09:03:11.509Z,11.81
2018-11-13T09:08:09.784Z,11.80
2018-11-13T09:13:07.193Z,11.82
2018-11-13T09:18:05.002Z,11.76
2018-11-13T09:23:02.458Z,11.72
2018-11-13T09:27:59.842Z,11.76
2018-11-13T09:32:57.299Z,11.75
2018-11-13T09:37:54.708Z,11.85
2018-11-13T09:42:52.178Z,11.91
2018-11-13T09:47:49.645Z,11.90
2018-11-13T09:52:48.068Z,11.93
2018-11-13T09:57:45.482Z,11.94
2018-11-13T10:02:46.871Z,11.97
2018-11-13T10:07:44.137Z,11.94
2018-11-13T10:12:41.560Z,11.93
2018-11-13T10:17:39.173Z,11.91
2018-11-13T10:22:36.540Z,11.88
2018-11-13T10:27:34.003Z,11.89
2018-11-13T10:32:31.444Z,11.95
2018-11-13T10:37:28.867Z,11.95
2018-11-13T10:42:26.317Z,12.11
2018-11-13T10:47:23.737Z,12.19
2018-11-13T10:52:21.166Z,12.17
2018-11-13T10:57:18.586Z,12.17
2018-11-13T11:02:21.682Z,12.11
2018-11-13T11:07:19.175Z,12.21
2018-11-13T11:12:16.586Z,12.32
2018-11-13T11:17:13.999Z,12.42
2018-11-13T11:22:11.396Z,12.62
2018-11-13T11:27:08.807Z,12.63
2018-11-13T11:32:06.282Z,12.64
2018-11-13T11:37:03.895Z,12.57
2018-11-13T11:42:01.336Z,12.63
2018-11-13T11:46:58.741Z,13.03
2018-11-13T11:51:56.182Z,13.11
2018-11-13T11:56:53.590Z,12.95
2018-11-13T12:01:51.020Z,12.84
2018-11-13T12:06:48.434Z,12.67
2018-11-13T12:11:45.829Z,12.34
2018-11-13T12:16:43.239Z,12.01
2018-11-13T12:21:40.631Z,11.38
2018-11-13T12:26:38.022Z,11.10
2018-11-13T12:31:35.429Z,10.95
2018-11-13T12:36:32.936Z,10.74
2018-11-13T12:41:30.343Z,10.66
2018-11-13T12:46:27.768Z,10.59
2018-11-13T12:51:30.800Z,10.64
2018-11-13T12:56:28.406Z,10.97
2018-11-13T13:01:25.722Z,11.10
2018-11-13T13:06:23.175Z,11.24
2018-11-13T13:11:20.590Z,11.32
2018-11-13T13:16:17.978Z,11.35
2018-11-13T13:21:15.399Z,11.42
2018-11-13T13:26:12.804Z,11.50
2018-11-13T13:31:10.328Z,11.55
2018-11-13T13:36:07.734Z,11.66
2018-11-13T13:41:05.606Z,11.61
2018-11-13T13:46:03.039Z,11.65
2018-11-13T13:51:00.423Z,11.71
2018-11-13T13:55:57.910Z,11.78
2018-11-13T14:00:56.197Z,11.91
2018-11-13T14:05:57.282Z,12.00
2018-11-13T14:10:54.763Z,11.95
2018-11-13T14:15:52.170Z,12.04
2018-11-13T14:20:49.677Z,11.98
2018-11-13T14:25:47.106Z,11.99
2018-11-13T14:30:44.587Z,12.04
2018-11-13T14:35:47.190Z,12.07
2018-11-13T14:40:45.884Z,12.13
2018-11-13T14:45:43.657Z,12.21
2018-11-13T14:50:41.490Z,12.26
2018-11-13T14:55:40.678Z,12.31
2018-11-13T15:00:38.578Z,12.31
2018-11-13T15:05:40.639Z,12.27
2018-11-13T15:10:51.461Z,12.23
2018-11-13T15:15:48.889Z,12.18
2018-11-13T15:20:46.995Z,12.17
2018-11-13T15:25:44.418Z,12.16
2018-11-13T15:30:43.322Z,12.06
2018-11-13T15:35:40.742Z,11.91
2018-11-13T15:40:38.189Z,11.82
2018-11-13T15:45:35.612Z,11.88
2018-11-13T15:50:33.967Z,11.84
2018-11-13T15:55:31.384Z,11.78
2018-11-13T16:00:33.241Z,11.78
2018-11-13T16:05:32.175Z,11.64
2018-11-13T16:10:29.583Z,11.54
2018-11-13T16:15:27.553Z,11.42
2018-11-13T16:20:25.350Z,11.44
2018-11-13T16:25:22.799Z,11.36
2018-11-13T16:30:21.558Z,11.28
2018-11-13T16:35:21.036Z,11.25
2018-11-13T16:40:26.139Z,11.18
2018-11-13T16:45:24.294Z,11.03
2018-11-13T16:50:22.835Z,11.00
2018-11-13T16:55:25.894Z,11.02
2018-11-13T17:00:23.689Z,10.90
2018-11-13T17:05:38.899Z,10.83
2018-11-13T17:10:39.273Z,10.85
2018-11-13T17:15:36.731Z,10.88
2018-11-13T17:20:34.139Z,10.83
2018-11-13T17:25:33.007Z,10.77
2018-11-13T17:30:31.751Z,10.75
2018-11-13T17:35:38.587Z,10.67
2018-11-13T17:40:36.798Z,10.67
2018-11-13T17:45:36.536Z,10.62
2018-11-13T17:50:35.206Z,10.56
2018-11-13T17:55:32.600Z,10.56
2018-11-13T18:00:31.674Z,10.30
2018-11-13T18:05:36.397Z,10.37
2018-11-13T18:10:34.927Z,10.41
2018-11-13T18:15:32.350Z,10.33
2018-11-13T18:20:31.900Z,10.24
2018-11-13T18:25:29.596Z,10.15
2018-11-13T18:30:31.075Z,10.24
2018-11-13T18:35:30.520Z,10.22
2018-11-13T18:40:28.342Z,10.25
2018-11-13T18:45:28.185Z,10.18
2018-11-13T18:50:28.668Z,10.22
2018-11-13T18:55:26.154Z,10.14
2018-11-13T19:00:32.532Z,10.18
2018-11-13T19:05:29.919Z,10.12
2018-11-13T19:10:34.329Z,10.21
2018-11-13T19:15:33.638Z,10.18
2018-11-13T19:20:31.191Z,10.23
2018-11-13T19:25:29.955Z,10.17
2018-11-13T19:30:27.373Z,10.15
2018-11-13T19:35:24.957Z,10.11
2018-11-13T19:40:24.559Z,10.09
2018-11-13T19:45:22.118Z,10.06
2018-11-13T19:50:28.345Z,10.05
2018-11-13T19:55:26.362Z,10.04
2018-11-13T20:00:27.952Z,10.05
2018-11-13T20:05:27.263Z,10.03
2018-11-13T20:10:25.899Z,10.07
2018-11-13T20:15:27.368Z,10.04
2018-11-13T20:20:30.202Z,10.05
2018-11-13T20:25:33.232Z,10.05
2018-11-13T20:30:34.301Z,9.98
2018-11-13T20:35:31.699Z,10.02
2018-11-13T20:40:31.502Z,10.01
2018-11-13T20:45:29.264Z,9.93
2018-11-13T20:50:27.973Z,9.89
2018-11-13T20:55:25.557Z,9.79
2018-11-13T21:00:28.557Z,9.87
2018-11-13T21:05:27.011Z,9.70
2018-11-13T21:10:30.131Z,9.49
2018-11-13T21:15:30.450Z,9.78
2018-11-13T21:20:27.842Z,9.69
2018-11-13T21:25:26.003Z,9.61
2018-11-13T21:30:23.589Z,9.67
2018-11-13T21:35:22.296Z,9.50
2018-11-13T21:40:23.416Z,9.45
2018-11-13T21:45:21.935Z,9.29
2018-11-13T21:50:20.972Z,9.45
2018-11-13T21:55:20.556Z,9.15
2018-11-13T22:00:30.451Z,9.09
2018-11-13T22:05:29.841Z,9.01
2018-11-13T22:10:27.243Z,9.19
2018-11-13T22:15:25.807Z,9.07
2018-11-13T22:20:23.707Z,9.16
2018-11-13T22:25:22.635Z,8.99
2018-11-13T22:30:21.299Z,9.05
2018-11-13T22:35:21.033Z,9.12
2018-11-13T22:40:21.663Z,9.00
2018-11-13T22:45:20.466Z,9.04
2018-11-13T22:50:20.799Z,9.00
2018-11-13T22:55:20.198Z,9.14
2018-11-13T23:00:23.019Z,9.15
2018-11-13T23:05:21.765Z,9.11
2018-11-13T23:10:19.224Z,8.92
2018-11-13T23:15:18.281Z,8.96
2018-11-13T23:20:16.996Z,9.10
2018-11-13T23:25:15.590Z,8.86
2018-11-13T23:30:15.379Z,8.67
2018-11-13T23:35:14.366Z,8.78
2018-11-13T23:40:13.272Z,8.52
2018-11-13T23:45:11.353Z,9.08
2018-11-13T23:50:09.077Z,8.97
2018-11-13T23:55:07.981Z,8.85
